createdAt,value
2023-05-08T00:00:23.099Z,101229.38
2023-05-08T00:01:25.901Z,101222.28
2023-05-08T00:02:27.842Z,101216.47
2023-05-08T00:03:31.140Z,101217.38
2023-05-08T00:04:33.127Z,101223.59
2023-05-08T00:05:36.048Z,101212.25
2023-05-08T00:06:37.834Z,101216.38
2023-05-08T00:07:41.260Z,101218.94
2023-05-08T00:08:44.412Z,101216.25
2023-05-08T00:09:47.193Z,101218.50
2023-05-08T00:10:49.575Z,101219.59
2023-05-08T00:11:52.563Z,101228.66
2023-05-08T00:12:54.501Z,101221.69
2023-05-08T00:13:57.361Z,101223.38
2023-05-08T00:14:59.181Z,101223.22
2023-05-08T00:16:01.990Z,101223.03
2023-05-08T00:17:03.897Z,101223.59
2023-05-08T00:18:06.831Z,101222.31
2023-05-08T00:19:08.690Z,101226.75
2023-05-08T00:20:12.906Z,101216.47
2023-05-08T00:21:14.980Z,101213.19
2023-05-08T00:22:17.761Z,101218.63
2023-05-08T00:23:21.965Z,101221.81
2023-05-08T00:24:26.344Z,101216.81
2023-05-08T00:25:28.245Z,101220.66
2023-05-08T00:26:31.028Z,101221.13
2023-05-08T00:27:33.260Z,101216.97
2023-05-08T00:28:36.008Z,101219.91
2023-05-08T00:29:40.142Z,101218.09
2023-05-08T00:30:42.892Z,101221.41
2023-05-08T00:31:44.796Z,101215.16
2023-05-08T00:32:48.216Z,101215.00
2023-05-08T00:33:50.260Z,101210.38
2023-05-08T00:34:53.063Z,101219.13
2023-05-08T00:35:59.485Z,101223.09
2023-05-08T00:37:02.937Z,101223.16
2023-05-08T00:38:04.772Z,101218.28
2023-05-08T00:39:07.860Z,101214.09
2023-05-08T00:40:12.091Z,101212.28
2023-05-08T00:41:16.224Z,101212.09
2023-05-08T00:42:18.087Z,101213.88
2023-05-08T00:43:25.626Z,101210.94
2023-05-08T00:44:27.577Z,101218.25
2023-05-08T00:45:35.886Z,101207.06
2023-05-08T00:46:38.861Z,101212.31
2023-05-08T00:47:41.191Z,101210.78
2023-05-08T00:48:44.952Z,101219.78
2023-05-08T00:49:46.824Z,101219.00
2023-05-08T00:50:50.426Z,101211.81
2023-05-08T00:51:55.827Z,101211.47
2023-05-08T00:52:59.654Z,101223.06
2023-05-08T00:54:01.596Z,101217.38
2023-05-08T00:55:06.113Z,101220.84
2023-05-08T00:56:11.007Z,101218.69
2023-05-08T00:57:16.353Z,101216.09
2023-05-08T00:58:18.879Z,101222.94
2023-05-08T00:59:22.200Z,101223.16
2023-05-08T01:00:24.707Z,101220.22
2023-05-08T01:01:27.666Z,101226.78
2023-05-08T01:02:31.257Z,101231.88
2023-05-08T01:03:37.026Z,101223.78
2023-05-08T01:04:40.622Z,101217.97
2023-05-08T01:05:44.552Z,101218.53
2023-05-08T01:06:46.354Z,101221.34
2023-05-08T01:07:49.262Z,101225.28
2023-05-08T01:08:51.117Z,101231.63
2023-05-08T01:09:54.628Z,101224.34
2023-05-08T01:11:06.339Z,101227.13
2023-05-08T01:12:17.119Z,101230.53
2023-05-08T01:13:32.713Z,101227.84
2023-05-08T01:14:45.839Z,101230.56
2023-05-08T01:15:54.471Z,101224.00
2023-05-08T01:17:03.979Z,101230.56
2023-05-08T01:18:13.290Z,101227.97
2023-05-08T01:19:53.919Z,101235.72
2023-05-08T01:21:03.209Z,101236.06
2023-05-08T01:22:16.958Z,101243.97
2023-05-08T01:23:59.446Z,101239.13
2023-05-08T01:25:18.164Z,101242.31
2023-05-08T01:26:43.143Z,101244.81
2023-05-08T01:28:14.478Z,101241.09
2023-05-08T01:29:48.846Z,101234.34
2023-05-08T01:31:08.111Z,101239.78
2023-05-08T01:32:16.712Z,101235.91
2023-05-08T01:33:24.884Z,101230.22
2023-05-08T01:34:33.391Z,101233.69
2023-05-08T01:35:52.293Z,101231.22
2023-05-08T01:37:00.611Z,101230.59
2023-05-08T01:38:07.591Z,101232.31
2023-05-08T01:39:18.690Z,101235.84
2023-05-08T01:40:28.859Z,101236.59
2023-05-08T01:41:35.515Z,101237.16
2023-05-08T01:42:47.627Z,101232.97
2023-05-08T01:43:56.136Z,101233.72
2023-05-08T01:45:02.960Z,101229.91
2023-05-08T01:46:10.915Z,101233.44
2023-05-08T01:47:17.026Z,101236.91
2023-05-08T01:48:23.552Z,101239.47
2023-05-08T01:49:28.307Z,101239.13
2023-05-08T01:50:36.563Z,101238.06
2023-05-08T01:51:43.748Z,101235.75
2023-05-08T01:52:50.919Z,101237.16
2023-05-08T01:53:57.883Z,101242.34
2023-05-08T01:55:04.610Z,101247.38
2023-05-08T01:56:11.843Z,101244.25
2023-05-08T01:57:17.997Z,101243.75
2023-05-08T01:58:21.839Z,101241.31
2023-05-08T01:59:28.178Z,101243.16
2023-05-08T02:00:31.267Z,101245.06
2023-05-08T02:01:35.830Z,101249.53
2023-05-08T02:02:39.906Z,101245.47
2023-05-08T02:03:44.228Z,101249.94
2023-05-08T02:04:48.405Z,101242.28
2023-05-08T02:05:53.617Z,101245.25
2023-05-08T02:06:56.926Z,101248.31
2023-05-08T02:08:00.782Z,101244.50
2023-05-08T02:09:02.921Z,101246.22
2023-05-08T02:10:07.263Z,101258.09
2023-05-08T02:11:12.400Z,101244.38
2023-05-08T02:12:17.276Z,101244.66
2023-05-08T02:13:21.343Z,101242.31
2023-05-08T02:14:26.284Z,101251.06
2023-05-08T02:15:30.612Z,101249.16
2023-05-08T02:16:35.328Z,101250.91
2023-05-08T02:17:41.540Z,101259.06
2023-05-08T02:18:46.994Z,101253.38
2023-05-08T02:19:52.122Z,101266.59
2023-05-08T02:20:56.462Z,101252.47
2023-05-08T02:22:00.576Z,101258.22
2023-05-08T02:23:03.006Z,101257.16
2023-05-08T02:24:07.041Z,101252.34
2023-05-08T02:25:14.359Z,101252.47
2023-05-08T02:26:17.962Z,101250.75
2023-05-08T02:27:22.031Z,101257.50
2023-05-08T02:28:25.897Z,101254.84
2023-05-08T02:29:28.782Z,101253.22
2023-05-08T02:30:32.080Z,101254.75
2023-05-08T02:31:35.756Z,101258.78
2023-05-08T02:32:39.823Z,101252.41
2023-05-08T02:33:46.002Z,101258.81
2023-05-08T02:35:01.938Z,101255.88
2023-05-08T02:36:06.432Z,101255.81
2023-05-08T02:37:10.368Z,101248.56
2023-05-08T02:38:13.370Z,101254.91
2023-05-08T02:39:15.549Z,101250.38
2023-05-08T02:40:19.655Z,101246.59
2023-05-08T02:41:23.090Z,101246.59
2023-05-08T02:42:26.164Z,101255.09
2023-05-08T02:43:28.409Z,101253.00
2023-05-08T02:44:31.593Z,101252.53
2023-05-08T02:45:39.872Z,101255.22
2023-05-08T02:46:48.922Z,101256.94
2023-05-08T02:48:00.090Z,101250.28
2023-05-08T02:49:08.138Z,101258.44
2023-05-08T02:50:16.817Z,101255.50
2023-05-08T02:51:24.654Z,101249.31
2023-05-08T02:52:29.693Z,101252.13
2023-05-08T02:53:36.826Z,101256.66
2023-05-08T02:54:44.244Z,101257.75
2023-05-08T02:55:50.460Z,101251.91
2023-05-08T02:56:58.147Z,101256.25
2023-05-08T02:58:12.541Z,101255.41
2023-05-08T02:59:20.268Z,101256.25
2023-05-08T03:00:28.620Z,101261.44
2023-05-08T03:01:37.092Z,101265.66
2023-05-08T03:02:41.995Z,101263.38
2023-05-08T03:03:46.614Z,101265.03
2023-05-08T03:04:56.166Z,101261.75
2023-05-08T03:06:02.742Z,101263.19
2023-05-08T03:07:06.541Z,101264.66
2023-05-08T03:08:14.040Z,101264.16
2023-05-08T03:09:21.248Z,101263.69
2023-05-08T03:10:28.314Z,101264.84
2023-05-08T03:11:43.496Z,101264.84
2023-05-08T03:12:49.449Z,101264.50
2023-05-08T03:13:58.779Z,101260.53
2023-05-08T03:15:05.322Z,101262.53
2023-05-08T03:16:11.589Z,101264.81
2023-05-08T03:17:18.034Z,101265.53
2023-05-08T03:18:23.123Z,101264.22
2023-05-08T03:19:29.387Z,101259.72
2023-05-08T03:20:37.315Z,101261.34
2023-05-08T03:21:44.062Z,101258.97
2023-05-08T03:22:48.239Z,101255.56
2023-05-08T03:23:54.045Z,101268.09
2023-05-08T03:24:58.316Z,101259.78
2023-05-08T03:26:01.993Z,101265.81
2023-05-08T03:27:06.191Z,101262.38
2023-05-08T03:28:09.281Z,101265.81
2023-05-08T03:29:13.478Z,101272.22
2023-05-08T03:30:17.707Z,101271.00
2023-05-08T03:31:21.432Z,101267.44
2023-05-08T03:32:27.147Z,101270.44
2023-05-08T03:33:30.689Z,101271.41
2023-05-08T03:34:34.956Z,101269.97
2023-05-08T03:35:39.778Z,101260.63
2023-05-08T03:36:43.023Z,101254.63
2023-05-08T03:37:45.025Z,101259.97
2023-05-08T03:38:48.192Z,101254.50
2023-05-08T03:39:51.543Z,101258.41
2023-05-08T03:40:54.509Z,101261.44
2023-05-08T03:41:56.978Z,101253.81
2023-05-08T03:43:02.745Z,101247.53
2023-05-08T03:44:07.923Z,101251.41
2023-05-08T03:45:11.301Z,101253.06
2023-05-08T03:46:14.855Z,101252.31
2023-05-08T03:47:17.983Z,101256.38
2023-05-08T03:48:22.571Z,101248.34
2023-05-08T03:49:26.321Z,101258.72
2023-05-08T03:50:29.520Z,101253.63
2023-05-08T03:51:33.257Z,101259.69
2023-05-08T03:52:36.119Z,101254.94
2023-05-08T03:53:38.082Z,101258.97
2023-05-08T03:54:40.985Z,101266.78
2023-05-08T03:55:42.925Z,101263.31
2023-05-08T03:56:46.058Z,101267.56
2023-05-08T03:57:57.157Z,101264.84
2023-05-08T03:59:08.905Z,101264.47
2023-05-08T04:00:19.192Z,101260.53
2023-05-08T04:01:25.943Z,101263.56
2023-05-08T04:02:32.867Z,101270.88
2023-05-08T04:03:51.163Z,101268.28
2023-05-08T04:04:59.376Z,101270.66
2023-05-08T04:06:08.435Z,101266.97
2023-05-08T04:07:15.847Z,101277.84
2023-05-08T04:08:23.507Z,101275.78
2023-05-08T04:09:31.777Z,101271.91
2023-05-08T04:10:39.746Z,101278.63
2023-05-08T04:11:47.384Z,101274.94
2023-05-08T04:12:58.195Z,101278.81
2023-05-08T04:14:02.165Z,101269.66
2023-05-08T04:15:10.073Z,101280.97
2023-05-08T04:16:19.872Z,101279.41
2023-05-08T04:17:35.679Z,101284.72
2023-05-08T04:18:42.866Z,101282.72
2023-05-08T04:19:49.409Z,101284.50
2023-05-08T04:20:55.924Z,101285.25
2023-05-08T04:22:06.214Z,101281.63
2023-05-08T04:23:12.678Z,101281.63
2023-05-08T04:24:18.000Z,101285.72
2023-05-08T04:25:20.261Z,101285.19
2023-05-08T04:26:23.134Z,101289.59
2023-05-08T04:27:26.833Z,101278.25
2023-05-08T04:28:29.234Z,101289.03
2023-05-08T04:29:33.692Z,101286.41
2023-05-08T04:30:35.788Z,101280.59
2023-05-08T04:31:40.755Z,101284.91
2023-05-08T04:32:45.546Z,101296.41
2023-05-08T04:33:50.619Z,101297.56
2023-05-08T04:34:52.828Z,101291.97
2023-05-08T04:35:55.846Z,101296.59
2023-05-08T04:36:57.826Z,101298.47
2023-05-08T04:38:00.995Z,101288.72
2023-05-08T04:39:04.238Z,101298.41
2023-05-08T04:40:08.642Z,101297.28
2023-05-08T04:41:11.056Z,101299.00
2023-05-08T04:42:13.950Z,101299.06
2023-05-08T04:43:15.973Z,101297.53
2023-05-08T04:44:18.924Z,101297.53
2023-05-08T04:45:21.138Z,101304.50
2023-05-08T04:46:24.700Z,101302.34
2023-05-08T04:47:26.768Z,101302.78
2023-05-08T04:48:31.381Z,101307.81
2023-05-08T04:49:33.229Z,101299.44
2023-05-08T04:50:36.058Z,101301.81
2023-05-08T04:51:37.831Z,101309.41
2023-05-08T04:52:40.683Z,101310.84
2023-05-08T04:53:42.528Z,101308.22
2023-05-08T04:54:46.748Z,101312.50
2023-05-08T04:55:48.600Z,101317.47
2023-05-08T04:56:51.467Z,101309.06
2023-05-08T04:57:53.350Z,101316.44
2023-05-08T04:58:56.234Z,101324.28
2023-05-08T04:59:58.108Z,101320.81
2023-05-08T05:01:03.196Z,101317.75
2023-05-08T05:02:08.049Z,101321.38
2023-05-08T05:03:11.065Z,101318.84
2023-05-08T05:04:13.015Z,101324.31
2023-05-08T05:05:16.004Z,101325.13
2023-05-08T05:06:17.923Z,101324.97
2023-05-08T05:07:20.908Z,101324.34
2023-05-08T05:08:22.754Z,101319.91
2023-05-08T05:09:25.974Z,101329.75
2023-05-08T05:10:29.535Z,101314.72
2023-05-08T05:11:32.316Z,101316.63
2023-05-08T05:12:34.218Z,101318.09
2023-05-08T05:13:36.989Z,101314.97
2023-05-08T05:14:38.801Z,101320.41
2023-05-08T05:15:43.276Z,101319.25
2023-05-08T05:16:45.276Z,101322.06
2023-05-08T05:17:48.214Z,101318.56
2023-05-08T05:18:51.996Z,101314.97
2023-05-08T05:19:54.770Z,101312.78
2023-05-08T05:20:58.265Z,101316.41
2023-05-08T05:22:01.053Z,101313.81
2023-05-08T05:23:03.090Z,101315.34
2023-05-08T05:24:07.127Z,101309.25
2023-05-08T05:25:09.799Z,101314.13
2023-05-08T05:26:14.056Z,101312.66
2023-05-08T05:27:15.922Z,101309.78
2023-05-08T05:28:18.745Z,101317.47
2023-05-08T05:29:20.579Z,101312.16
2023-05-08T05:30:23.548Z,101320.63
2023-05-08T05:31:25.836Z,101317.22
2023-05-08T05:32:28.738Z,101316.06
2023-05-08T05:33:30.664Z,101315.03
2023-05-08T05:34:33.602Z,101307.75
2023-05-08T05:35:35.549Z,101313.53
2023-05-08T05:36:38.459Z,101315.84
2023-05-08T05:37:40.592Z,101313.47
2023-05-08T05:38:43.698Z,101317.47
2023-05-08T05:39:45.937Z,101316.03
2023-05-08T05:40:49.007Z,101314.81
2023-05-08T05:41:52.282Z,101318.44
2023-05-08T05:42:55.156Z,101317.44
2023-05-08T05:43:56.961Z,101317.41
2023-05-08T05:44:59.734Z,101314.00
2023-05-08T05:46:04.413Z,101310.72
2023-05-08T05:47:10.107Z,101319.66
2023-05-08T05:48:12.265Z,101312.84
2023-05-08T05:49:15.109Z,101318.31
2023-05-08T05:50:18.146Z,101318.53
2023-05-08T05:51:20.987Z,101321.47
2023-05-08T05:52:22.801Z,101323.94
2023-05-08T05:53:25.718Z,101320.41
2023-05-08T05:54:28.534Z,101317.22
2023-05-08T05:55:31.651Z,101318.75
2023-05-08T05:56:33.583Z,101318.84
2023-05-08T05:57:37.970Z,101322.22
2023-05-08T05:58:44.919Z,101318.66
2023-05-08T05:59:47.814Z,101324.69
2023-05-08T06:00:49.625Z,101325.03
2023-05-08T06:01:52.737Z,101318.44
2023-05-08T06:02:55.164Z,101314.50
2023-05-08T06:03:58.224Z,101317.78
2023-05-08T06:05:00.223Z,101312.34
2023-05-08T06:06:03.025Z,101311.91
2023-05-08T06:07:04.908Z,101309.31
2023-05-08T06:08:08.464Z,101316.69
2023-05-08T06:09:10.323Z,101313.84
2023-05-08T06:10:13.310Z,101311.06
2023-05-08T06:11:15.483Z,101307.78
2023-05-08T06:12:18.775Z,101314.69
2023-05-08T06:13:22.027Z,101312.34
2023-05-08T06:14:25.140Z,101314.72
2023-05-08T06:15:27.013Z,101310.66
2023-05-08T06:16:30.492Z,101307.19
2023-05-08T06:17:32.415Z,101310.03
2023-05-08T06:18:35.540Z,101307.09
2023-05-08T06:19:37.456Z,101315.31
2023-05-08T06:20:40.290Z,101314.00
2023-05-08T06:21:42.238Z,101306.41
2023-05-08T06:22:45.051Z,101308.22
2023-05-08T06:23:46.891Z,101306.50
2023-05-08T06:24:49.936Z,101307.03
2023-05-08T06:25:51.793Z,101306.56
2023-05-08T06:26:54.761Z,101313.13
2023-05-08T06:27:56.944Z,101315.16
2023-05-08T06:29:01.371Z,101312.16
2023-05-08T06:30:04.461Z,101315.09
2023-05-08T06:31:07.305Z,101311.06
2023-05-08T06:32:09.208Z,101316.69
2023-05-08T06:33:12.512Z,101313.19
2023-05-08T06:34:14.366Z,101311.00
2023-05-08T06:35:18.498Z,101311.06
2023-05-08T06:36:20.416Z,101308.84
2023-05-08T06:37:23.399Z,101319.09
2023-05-08T06:38:25.299Z,101313.44
2023-05-08T06:39:28.093Z,101313.53
2023-05-08T06:40:30.889Z,101311.75
2023-05-08T06:41:32.740Z,101312.25
2023-05-08T06:42:35.539Z,101306.44
2023-05-08T06:43:37.360Z,101313.72
2023-05-08T06:44:41.691Z,101313.41
2023-05-08T06:45:44.876Z,101306.97
2023-05-08T06:46:46.773Z,101306.75
2023-05-08T06:47:49.909Z,101316.59
2023-05-08T06:48:51.764Z,101313.16
2023-05-08T06:49:55.111Z,101318.63
2023-05-08T06:50:56.925Z,101311.47
2023-05-08T06:51:59.845Z,101316.75
2023-05-08T06:53:02.680Z,101315.34
2023-05-08T06:54:08.148Z,101312.75
2023-05-08T06:55:10.108Z,101311.03
2023-05-08T06:56:12.918Z,101309.56
2023-05-08T06:57:16.143Z,101319.34
2023-05-08T06:58:19.098Z,101321.47
2023-05-08T06:59:21.205Z,101321.72
2023-05-08T07:00:26.107Z,101314.03
2023-05-08T07:01:27.984Z,101320.44
2023-05-08T07:02:30.886Z,101314.91
2023-05-08T07:03:33.726Z,101314.94
2023-05-08T07:04:35.651Z,101312.47
2023-05-08T07:05:38.726Z,101310.16
2023-05-08T07:06:40.721Z,101305.56
2023-05-08T07:07:43.807Z,101305.56
2023-05-08T07:08:45.803Z,101308.53
2023-05-08T07:09:48.866Z,101300.25
2023-05-08T07:10:50.919Z,101305.72
2023-05-08T07:11:53.898Z,101304.81
2023-05-08T07:12:56.892Z,101300.16
2023-05-08T07:14:00.251Z,101303.97
2023-05-08T07:15:13.758Z,101292.81
2023-05-08T07:16:19.303Z,101291.44
2023-05-08T07:17:22.095Z,101307.97
2023-05-08T07:18:25.163Z,101284.41
2023-05-08T07:19:27.167Z,101286.75
2023-05-08T07:20:30.430Z,101294.38
2023-05-08T07:21:32.474Z,101295.81
2023-05-08T07:22:35.776Z,101287.16
2023-05-08T07:23:38.936Z,101295.66
2023-05-08T07:24:41.596Z,101303.59
2023-05-08T07:25:44.718Z,101294.41
2023-05-08T07:26:47.748Z,101278.34
2023-05-08T07:27:49.885Z,101299.88
2023-05-08T07:28:54.319Z,101310.19
2023-05-08T07:29:57.646Z,101306.06
2023-05-08T07:31:00.733Z,101298.63
2023-05-08T07:32:07.512Z,101307.28
2023-05-08T07:33:10.774Z,101291.34
2023-05-08T07:34:13.050Z,101305.53
2023-05-08T07:35:16.481Z,101305.88
2023-05-08T07:36:19.779Z,101291.75
2023-05-08T07:37:23.768Z,101276.22
2023-05-08T07:38:26.818Z,101305.63
2023-05-08T07:39:28.794Z,101293.69
2023-05-08T07:40:31.977Z,101309.34
2023-05-08T07:41:36.125Z,101308.16
2023-05-08T07:42:39.746Z,101294.56
2023-05-08T07:43:43.632Z,101270.78
2023-05-08T07:44:54.527Z,101294.41
2023-05-08T07:45:58.643Z,101299.97
2023-05-08T07:47:00.845Z,101286.78
2023-05-08T07:48:05.681Z,101307.03
2023-05-08T07:49:09.056Z,101318.44
2023-05-08T07:50:11.557Z,101319.16
2023-05-08T07:51:14.820Z,101301.75
2023-05-08T07:52:16.906Z,101306.16
2023-05-08T07:53:19.777Z,101313.38
2023-05-08T07:54:25.121Z,101303.81
2023-05-08T07:55:28.028Z,101311.44
2023-05-08T07:56:30.102Z,101318.38
2023-05-08T07:57:38.040Z,101315.97
2023-05-08T07:58:40.469Z,101300.13
2023-05-08T07:59:43.467Z,101304.41
2023-05-08T08:00:45.689Z,101292.19
2023-05-08T08:01:48.752Z,101318.38
2023-05-08T08:02:50.908Z,101304.34
2023-05-08T08:03:55.542Z,101313.44
2023-05-08T08:04:57.725Z,101322.56
2023-05-08T08:06:00.712Z,101310.59
2023-05-08T08:07:03.753Z,101309.28
2023-05-08T08:08:05.909Z,101293.63
2023-05-08T08:09:09.008Z,101310.69
2023-05-08T08:10:11.155Z,101300.84
2023-05-08T08:11:14.481Z,101318.91
2023-05-08T08:12:19.205Z,101297.84
2023-05-08T08:13:22.397Z,101318.41
2023-05-08T08:14:27.816Z,101310.16
2023-05-08T08:15:30.933Z,101304.38
2023-05-08T08:16:34.992Z,101307.81
2023-05-08T08:17:38.325Z,101310.59
2023-05-08T08:18:41.556Z,101319.94
2023-05-08T08:19:44.927Z,101306.56
2023-05-08T08:20:48.014Z,101294.00
2023-05-08T08:21:50.110Z,101312.91
2023-05-08T08:22:53.543Z,101325.50
2023-05-08T08:23:56.856Z,101314.53
2023-05-08T08:24:59.687Z,101317.28
2023-05-08T08:26:02.818Z,101323.88
2023-05-08T08:27:04.816Z,101300.31
2023-05-08T08:28:08.628Z,101310.16
2023-05-08T08:29:10.761Z,101294.28
2023-05-08T08:30:18.024Z,101310.09
2023-05-08T08:31:21.508Z,101319.72
2023-05-08T08:32:25.306Z,101314.84
2023-05-08T08:33:27.626Z,101319.75
2023-05-08T08:34:30.895Z,101321.41
2023-05-08T08:35:36.662Z,101326.34
2023-05-08T08:36:39.278Z,101325.25
2023-05-08T08:37:42.479Z,101304.16
2023-05-08T08:38:45.790Z,101313.44
2023-05-08T08:39:48.377Z,101319.47
2023-05-08T08:40:51.722Z,101313.97
2023-05-08T08:41:53.762Z,101308.53
2023-05-08T08:42:56.691Z,101307.16
2023-05-08T08:43:58.684Z,101316.19
2023-05-08T08:45:02.619Z,101319.50
2023-05-08T08:46:12.596Z,101328.78
2023-05-08T08:47:16.842Z,101322.22
2023-05-08T08:48:23.127Z,101296.22
2023-05-08T08:49:29.881Z,101304.13
2023-05-08T08:50:34.078Z,101290.44
2023-05-08T08:51:46.001Z,101295.56
2023-05-08T08:52:56.827Z,101293.88
2023-05-08T08:54:05.896Z,101309.13
2023-05-08T08:55:12.830Z,101320.09
2023-05-08T08:56:16.970Z,101298.34
2023-05-08T08:57:21.140Z,101311.28
2023-05-08T08:58:32.789Z,101301.44
2023-05-08T08:59:39.375Z,101296.97
2023-05-08T09:00:43.061Z,101312.81
2023-05-08T09:01:49.494Z,101309.06
2023-05-08T09:02:52.267Z,101295.91
2023-05-08T09:03:55.680Z,101306.28
2023-05-08T09:04:58.185Z,101288.25
2023-05-08T09:06:02.256Z,101303.03
2023-05-08T09:07:07.231Z,101320.84
2023-05-08T09:08:11.701Z,101305.72
2023-05-08T09:09:16.527Z,101311.16
2023-05-08T09:10:20.215Z,101302.47
2023-05-08T09:11:25.207Z,101310.19
2023-05-08T09:12:28.349Z,101301.41
2023-05-08T09:13:31.622Z,101302.22
2023-05-08T09:14:34.121Z,101302.50
2023-05-08T09:15:38.363Z,101299.13
2023-05-08T09:16:45.254Z,101288.03
2023-05-08T09:17:50.617Z,101306.75
2023-05-08T09:18:56.775Z,101309.97
2023-05-08T09:19:59.073Z,101298.13
2023-05-08T09:21:02.673Z,101306.78
2023-05-08T09:22:09.305Z,101286.16
2023-05-08T09:23:14.320Z,101289.81
2023-05-08T09:24:16.349Z,101299.66
2023-05-08T09:25:19.389Z,101309.09
2023-05-08T09:26:28.773Z,101308.84
2023-05-08T09:27:36.788Z,101298.66
2023-05-08T09:28:39.737Z,101317.31
2023-05-08T09:30:07.046Z,101307.63
2023-05-08T09:31:13.224Z,101301.50
2023-05-08T09:32:18.875Z,101299.25
2023-05-08T09:33:23.416Z,101305.47
2023-05-08T09:34:30.223Z,101315.53
2023-05-08T09:35:40.701Z,101291.78
2023-05-08T09:36:43.062Z,101292.00
2023-05-08T09:37:50.380Z,101313.22
2023-05-08T09:39:01.004Z,101290.59
2023-05-08T09:40:19.193Z,101311.72
2023-05-08T09:41:21.907Z,101295.94
2023-05-08T09:42:25.348Z,101301.59
2023-05-08T09:43:36.119Z,101297.78
2023-05-08T09:44:48.616Z,101314.72
2023-05-08T09:45:53.414Z,101296.06
2023-05-08T09:47:13.934Z,101304.41
2023-05-08T09:48:16.644Z,101309.19
2023-05-08T09:49:22.429Z,101285.31
2023-05-08T09:50:31.636Z,101283.19
2023-05-08T09:51:37.139Z,101320.56
2023-05-08T09:52:47.679Z,101286.53
2023-05-08T09:53:54.706Z,101308.31
2023-05-08T09:55:00.819Z,101297.09
2023-05-08T09:56:03.304Z,101283.91
2023-05-08T09:57:13.791Z,101298.63
2023-05-08T09:58:17.693Z,101284.78
2023-05-08T09:59:24.351Z,101282.06
2023-05-08T10:00:39.988Z,101309.09
2023-05-08T10:01:44.176Z,101317.91
2023-05-08T10:02:58.178Z,101292.56
2023-05-08T10:04:01.986Z,101310.66
2023-05-08T10:05:06.547Z,101318.13
2023-05-08T10:06:16.324Z,101305.94
2023-05-08T10:07:28.770Z,101311.19
2023-05-08T10:08:31.715Z,101299.63
2023-05-08T10:09:49.903Z,101308.44
2023-05-08T10:10:55.494Z,101289.59
2023-05-08T10:12:03.291Z,101287.44
2023-05-08T10:13:08.014Z,101298.09
2023-05-08T10:14:12.025Z,101299.09
2023-05-08T10:15:17.749Z,101299.75
2023-05-08T10:16:23.948Z,101293.38
2023-05-08T10:17:29.748Z,101309.66
2023-05-08T10:18:37.541Z,101309.31
2023-05-08T10:19:47.028Z,101298.13
2023-05-08T10:20:56.529Z,101301.75
2023-05-08T10:22:06.605Z,101278.19
2023-05-08T10:23:19.167Z,101291.03
2023-05-08T10:24:28.860Z,101300.72
2023-05-08T10:25:34.782Z,101308.47
2023-05-08T10:27:02.719Z,101295.66
2023-05-08T10:28:17.541Z,101290.16
2023-05-08T10:29:30.766Z,101295.34
2023-05-08T10:30:44.609Z,101290.81
2023-05-08T10:32:00.199Z,101295.94
2023-05-08T10:33:28.010Z,101300.78
2023-05-08T10:34:43.915Z,101282.06
2023-05-08T10:35:54.646Z,101265.81
2023-05-08T10:37:04.354Z,101275.34
2023-05-08T10:38:13.362Z,101299.63
2023-05-08T10:39:19.399Z,101282.13
2023-05-08T10:40:27.126Z,101302.13
2023-05-08T10:41:37.682Z,101296.72
2023-05-08T10:42:42.550Z,101277.97
2023-05-08T10:43:44.989Z,101286.34
2023-05-08T10:44:51.096Z,101285.75
2023-05-08T10:45:55.162Z,101272.28
2023-05-08T10:47:07.074Z,101282.41
2023-05-08T10:48:21.462Z,101291.44
2023-05-08T10:49:37.722Z,101288.69
2023-05-08T10:51:01.945Z,101280.75
2023-05-08T10:52:27.130Z,101285.84
2023-05-08T10:53:40.165Z,101298.72
2023-05-08T10:55:37.370Z,101256.53
2023-05-08T10:56:43.597Z,101295.47
2023-05-08T10:58:27.713Z,101291.75
2023-05-08T10:59:40.810Z,101296.03
2023-05-08T11:01:16.010Z,101296.16
2023-05-08T11:02:36.995Z,101279.31
2023-05-08T11:03:46.208Z,101290.53
2023-05-08T11:04:54.968Z,101278.13
2023-05-08T11:06:02.869Z,101257.56
2023-05-08T11:07:08.722Z,101281.78
2023-05-08T11:08:17.948Z,101270.44
2023-05-08T11:09:25.350Z,101273.88
2023-05-08T11:10:33.688Z,101285.03
2023-05-08T11:11:55.535Z,101278.06
2023-05-08T11:13:02.292Z,101280.47
2023-05-08T11:14:14.169Z,101277.63
2023-05-08T11:15:41.728Z,101250.06
2023-05-08T11:17:14.203Z,101283.28
2023-05-08T11:18:18.094Z,101280.25
2023-05-08T11:19:28.106Z,101247.28
2023-05-08T11:20:45.989Z,101267.31
2023-05-08T11:22:16.138Z,101279.25
2023-05-08T11:23:37.394Z,101268.03
2023-05-08T11:24:41.738Z,101276.25
2023-05-08T11:25:55.234Z,101264.41
2023-05-08T11:27:02.004Z,101279.09
2023-05-08T11:28:19.862Z,101278.81
2023-05-08T11:29:26.660Z,101261.50
2023-05-08T11:30:40.044Z,101253.72
2023-05-08T11:31:58.872Z,101258.13
2023-05-08T11:33:21.668Z,101257.94
2023-05-08T11:34:48.725Z,101280.09
2023-05-08T11:36:07.760Z,101260.94
2023-05-08T11:37:26.957Z,101257.81
2023-05-08T11:38:33.993Z,101262.00
2023-05-08T11:39:39.712Z,101257.63
2023-05-08T11:40:54.720Z,101249.34
2023-05-08T11:42:37.870Z,101258.66
2023-05-08T11:44:25.479Z,101266.84
2023-05-08T11:45:29.609Z,101263.84
2023-05-08T11:46:43.455Z,101263.81
2023-05-08T11:47:51.674Z,101248.25
2023-05-08T11:49:04.011Z,101237.78
2023-05-08T11:50:18.250Z,101237.47
2023-05-08T11:51:35.147Z,101245.50
2023-05-08T11:52:49.494Z,101239.81
2023-05-08T11:53:55.581Z,101243.03
2023-05-08T11:55:04.766Z,101237.53
2023-05-08T11:56:10.490Z,101254.59
2023-05-08T11:57:27.927Z,101225.38
2023-05-08T11:58:38.533Z,101228.19
2023-05-08T11:59:43.643Z,101248.28
2023-05-08T12:00:47.144Z,101254.69
2023-05-08T12:03:02.911Z,101250.63
2023-05-08T12:04:11.036Z,101254.25
2023-05-08T12:05:30.845Z,101240.94
2023-05-08T12:06:45.105Z,101230.47
2023-05-08T12:07:56.140Z,101235.53
2023-05-08T12:09:01.380Z,101239.69
2023-05-08T12:10:07.688Z,101240.38
2023-05-08T12:11:11.585Z,101238.16
2023-05-08T12:12:22.557Z,101220.31
2023-05-08T12:13:37.268Z,101242.16
2023-05-08T12:14:41.155Z,101238.03
2023-05-08T12:15:46.647Z,101218.69
2023-05-08T12:16:52.428Z,101228.47
2023-05-08T12:18:05.859Z,101224.78
2023-05-08T12:19:22.789Z,101227.97
2023-05-08T12:20:25.915Z,101210.75
2023-05-08T12:21:40.744Z,101216.72
2023-05-08T12:22:58.004Z,101224.47
2023-05-08T12:24:11.690Z,101233.44
2023-05-08T12:25:19.086Z,101245.59
2023-05-08T12:26:22.821Z,101231.47
2023-05-08T12:27:31.474Z,101224.00
2023-05-08T12:28:38.342Z,101233.41
2023-05-08T12:29:49.816Z,101215.81
2023-05-08T12:31:04.336Z,101198.41
2023-05-08T12:32:09.262Z,101222.19
2023-05-08T12:33:28.783Z,101202.59
2023-05-08T12:34:34.337Z,101186.06
2023-05-08T12:35:39.795Z,101211.06
2023-05-08T12:36:43.154Z,101203.66
2023-05-08T12:37:49.049Z,101215.06